Time;durP1;ratioP1;P1;durP2;ratioP2;P2;SDS_P1;SDS_P2;PMS_P1;PMS_P2;Temp;Humidity;BMP_temperature;BMP_pressure;BME280_temperature;BME280_humidity;BME280_pressure;Samples;Min_cycle;Max_cycle;Signal;HPM_P1;HPM_P2
2023/04/23 00:00:00;;;;;;;24.95;15.25;;;9.40;99.90;;;;;;5075036;28;20040;-73
2023/04/23 00:02:28;;;;;;;24.23;14.55;;;9.40;99.90;;;;;;5074005;28;20055;-73
2023/04/23 00:04:58;;;;;;;20.67;14.13;;;9.30;99.90;;;;;;5074995;28;20041;-72
2023/04/23 00:07:24;;;;;;;24.13;15.43;;;9.30;99.90;;;;;;5075127;28;20044;-71
2023/04/23 00:09:54;;;;;;;20.50;14.60;;;9.20;99.90;;;;;;5075361;28;20052;-72
2023/04/23 00:12:20;;;;;;;20.48;14.18;;;9.30;99.90;;;;;;5075065;28;20110;-72
2023/04/23 00:14:46;;;;;;;23.77;14.85;;;9.10;99.90;;;;;;5074736;28;20070;-72
2023/04/23 00:17:11;;;;;;;24.00;15.48;;;9.20;99.90;;;;;;5074787;28;20047;-72
2023/04/23 00:19:37;;;;;;;24.08;16.13;;;9.10;99.90;;;;;;5074504;28;20044;-71
2023/04/23 00:22:03;;;;;;;25.95;16.30;;;8.90;99.90;;;;;;5075018;28;20052;-72
2023/04/23 00:24:30;;;;;;;26.75;15.95;;;9.10;99.90;;;;;;5074749;28;20044;-71
2023/04/23 00:26:56;;;;;;;25.98;16.75;;;9.00;99.90;;;;;;5073836;28;20040;-71
2023/04/23 00:29:22;;;;;;;27.50;16.77;;;9.00;99.90;;;;;;5074526;28;20063;-72
2023/04/23 00:31:47;;;;;;;28.20;17.40;;;9.20;99.90;;;;;;5074351;28;20075;-71
2023/04/23 00:34:13;;;;;;;31.98;19.77;;;9.20;99.90;;;;;;5074618;28;20392;-71
2023/04/23 00:36:39;;;;;;;35.55;20.35;;;9.00;99.90;;;;;;5074445;28;20182;-72
2023/04/23 00:39:05;;;;;;;32.08;18.83;;;8.90;99.90;;;;;;5074550;28;20484;-72
2023/04/23 00:41:30;;;;;;;30.58;19.63;;;9.00;99.90;;;;;;5056652;28;20045;-71
2023/04/23 00:43:56;;;;;;;30.98;19.60;;;9.10;99.90;;;;;;5074138;28;20541;-72
2023/04/23 00:46:26;;;;;;;35.72;21.45;;;9.10;99.90;;;;;;5074477;28;20397;-72
2023/04/23 00:48:53;;;;;;;34.97;21.75;;;9.10;99.90;;;;;;5074254;28;20049;-72
2023/04/23 00:51:22;;;;;;;34.72;20.98;;;9.20;99.90;;;;;;5074292;28;20084;-72
2023/04/23 00:53:48;;;;;;;36.67;22.27;;;9.30;99.90;;;;;;5072920;28;20044;-72
2023/04/23 00:56:14;;;;;;;37.47;22.73;;;9.20;99.90;;;;;;5073521;28;20058;-71
2023/04/23 00:58:40;;;;;;;34.78;21.65;;;9.30;99.90;;;;;;5073707;28;20070;-72
2023/04/23 01:01:06;;;;;;;36.20;22.38;;;9.20;99.90;;;;;;5073984;28;20067;-72
2023/04/23 01:03:35;;;;;;;41.38;23.33;;;9.30;99.90;;;;;;5074013;28;20064;-72
2023/04/23 01:06:01;;;;;;;37.20;21.77;;;9.20;99.90;;;;;;5072756;28;20052;-72
2023/04/23 01:08:27;;;;;;;35.75;21.45;;;9.60;99.90;;;;;;5073779;28;20076;-72
2023/04/23 01:10:53;;;;;;;37.22;22.13;;;9.30;99.90;;;;;;5073914;28;20071;-73
2023/04/23 01:13:21;;;;;;;36.22;20.20;;;9.40;99.90;;;;;;5072707;28;20056;-72
2023/04/23 01:15:47;;;;;;;31.15;19.77;;;9.40;99.90;;;;;;5072648;28;20123;-72
2023/04/23 01:18:13;;;;;;;34.05;19.95;;;9.30;99.90;;;;;;5072821;28;20128;-72
2023/04/23 01:20:40;;;;;;;35.28;20.20;;;9.30;99.90;;;;;;5073755;28;20052;-72
2023/04/23 01:23:06;;;;;;;29.85;18.58;;;9.20;99.90;;;;;;5073600;28;20061;-72
2023/04/23 01:25:32;;;;;;;31.83;20.27;;;9.30;99.90;;;;;;5073411;28;20044;-71
2023/04/23 01:27:58;;;;;;;33.95;18.60;;;9.30;99.90;;;;;;5073088;28;20044;-73
2023/04/23 01:30:27;;;;;;;36.13;19.65;;;9.40;99.90;;;;;;5072968;28;20142;-71
2023/04/23 01:32:55;;;;;;;32.50;20.20;;;9.30;99.90;;;;;;5073232;28;20493;-73
2023/04/23 01:35:21;;;;;;;36.70;21.35;;;9.40;99.90;;;;;;5073487;28;20090;-71
2023/04/23 01:37:48;;;;;;;36.72;21.15;;;9.50;99.90;;;;;;5072154;28;20122;-72
2023/04/23 01:40:14;;;;;;;33.80;19.58;;;9.20;99.90;;;;;;5073347;28;20083;-72
2023/04/23 01:42:40;;;;;;;35.17;19.88;;;9.30;99.90;;;;;;5072092;28;20064;-73
2023/04/23 01:45:07;;;;;;;33.13;19.45;;;9.20;99.90;;;;;;5071970;28;20053;-72
2023/04/23 01:47:34;;;;;;;32.03;17.90;;;9.30;99.90;;;;;;5089595;28;20060;-73
2023/04/23 01:49:59;;;;;;;28.55;17.58;;;9.20;99.90;;;;;;5073593;28;20064;-73
2023/04/23 01:52:25;;;;;;;28.15;17.70;;;9.00;99.90;;;;;;5073276;28;20079;-72
2023/04/23 01:54:51;;;;;;;33.05;19.70;;;9.10;99.90;;;;;;5073187;28;20471;-71
2023/04/23 01:57:23;;;;;;;29.60;18.13;;;9.10;99.90;;;;;;5071235;28;20094;-72
2023/04/23 02:00:03;;;;;;;33.42;19.27;;;9.10;99.90;;;;;;5073399;28;20080;-72
2023/04/23 02:02:28;;;;;;;32.45;17.48;;;9.00;99.90;;;;;;5073198;28;20044;-72
2023/04/23 02:04:56;;;;;;;32.08;17.95;;;9.10;99.90;;;;;;5073028;28;20040;-72
2023/04/23 02:07:21;;;;;;;33.05;17.83;;;9.00;99.90;;;;;;5071975;28;20044;-72
2023/04/23 02:09:47;;;;;;;30.42;18.23;;;9.00;99.90;;;;;;5073150;28;20127;-72
2023/04/23 02:12:13;;;;;;;30.50;16.70;;;9.00;99.90;;;;;;5072203;28;20086;-73
2023/04/23 02:14:38;;;;;;;30.67;17.92;;;8.90;99.90;;;;;;5071693;28;20040;-71
2023/04/23 02:17:05;;;;;;;27.75;16.08;;;9.00;99.90;;;;;;5072245;28;20105;-72
2023/04/23 02:19:33;;;;;;;29.73;17.83;;;9.00;99.90;;;;;;5072999;28;20045;-73
2023/04/23 02:21:59;;;;;;;30.42;17.77;;;9.00;99.90;;;;;;5072861;28;20049;-73
2023/04/23 02:24:25;;;;;;;34.00;18.02;;;9.00;99.90;;;;;;5072499;28;20086;-74
2023/04/23 02:26:50;;;;;;;30.20;18.20;;;9.20;99.90;;;;;;5072478;28;20044;-73
2023/04/23 02:29:16;;;;;;;28.90;17.85;;;8.90;99.90;;;;;;5073119;28;20559;-73
2023/04/23 02:31:41;;;;;;;32.03;18.25;;;8.90;99.90;;;;;;5072050;28;20048;-73
2023/04/23 02:34:07;;;;;;;32.95;17.83;;;8.80;99.90;;;;;;5072847;28;20139;-73
2023/04/23 02:36:33;;;;;;;29.63;18.55;;;8.70;99.90;;;;;;5072822;28;20052;-73
2023/04/23 02:38:59;;;;;;;28.38;17.77;;;8.90;99.90;;;;;;5072596;28;20045;-74
2023/04/23 02:41:24;;;;;;;29.33;18.75;;;8.90;99.90;;;;;;5072904;28;20059;-74
2023/04/23 02:43:50;;;;;;;30.98;18.00;;;8.90;99.90;;;;;;5074848;28;20092;-74
2023/04/23 02:46:16;;;;;;;31.63;18.10;;;8.80;99.90;;;;;;5076633;28;20079;-74
2023/04/23 02:48:41;;;;;;;31.10;18.23;;;8.80;99.90;;;;;;5076510;28;20102;-74
2023/04/23 02:51:09;;;;;;;27.85;16.75;;;8.60;99.90;;;;;;5076522;28;20040;-73
2023/04/23 02:53:35;;;;;;;28.48;17.70;;;8.70;99.90;;;;;;5076155;28;20061;-74
2023/04/23 02:56:01;;;;;;;32.08;18.92;;;8.70;99.90;;;;;;5075964;28;20045;-74
2023/04/23 02:58:27;;;;;;;29.17;18.30;;;8.70;99.90;;;;;;5075186;28;20040;-74
2023/04/23 03:00:54;;;;;;;29.02;17.75;;;8.80;99.90;;;;;;5076206;28;20037;-74
2023/04/23 03:03:20;;;;;;;30.55;18.75;;;8.70;99.90;;;;;;5076181;28;20059;-74
2023/04/23 03:05:46;;;;;;;30.48;18.35;;;8.70;99.90;;;;;;5076207;28;20044;-74
2023/04/23 03:08:12;;;;;;;28.45;18.42;;;8.70;99.90;;;;;;5074720;28;20044;-74
2023/04/23 03:10:37;;;;;;;30.88;18.35;;;8.50;99.90;;;;;;5074887;28;20042;-74
2023/04/23 03:13:03;;;;;;;32.67;19.75;;;8.40;99.90;;;;;;5075260;28;20067;-74
2023/04/23 03:15:29;;;;;;;32.88;18.45;;;8.50;99.90;;;;;;5076024;28;20039;-74
2023/04/23 03:17:55;;;;;;;34.25;18.80;;;8.50;99.90;;;;;;5076097;28;20100;-74
2023/04/23 03:20:21;;;;;;;32.63;18.52;;;8.50;99.90;;;;;;5075910;28;20055;-74
2023/04/23 03:22:46;;;;;;;34.63;20.48;;;8.50;99.90;;;;;;5075674;28;20416;-74
2023/04/23 03:25:12;;;;;;;32.72;20.23;;;8.40;99.90;;;;;;5074399;28;20071;-74
2023/04/23 03:27:39;;;;;;;34.60;20.33;;;8.30;99.90;;;;;;5074304;28;20048;-74
2023/04/23 03:30:07;;;;;;;32.55;19.98;;;8.50;99.90;;;;;;5074410;28;20055;-74
2023/04/23 03:32:34;;;;;;;31.95;19.15;;;8.30;99.90;;;;;;5058153;28;20083;-74
2023/04/23 03:34:59;;;;;;;35.45;20.30;;;8.30;99.90;;;;;;5075537;28;20048;-75
2023/04/23 03:37:26;;;;;;;33.53;19.92;;;8.10;99.90;;;;;;5074423;28;20091;-75
2023/04/23 03:39:52;;;;;;;34.15;20.73;;;8.50;99.90;;;;;;5075630;28;20072;-74
2023/04/23 03:42:18;;;;;;;35.42;20.48;;;8.30;99.90;;;;;;5076101;28;20044;-75
2023/04/23 03:44:43;;;;;;;37.70;21.73;;;8.20;99.90;;;;;;5075397;28;20044;-73
2023/04/23 03:47:09;;;;;;;38.03;21.48;;;8.30;99.90;;;;;;5075391;28;20064;-74
2023/04/23 03:49:35;;;;;;;40.97;22.20;;;8.30;99.90;;;;;;5075458;28;20045;-74
2023/04/23 03:52:01;;;;;;;36.65;20.10;;;8.30;99.90;;;;;;5075148;28;20052;-74
2023/04/23 03:54:27;;;;;;;40.08;22.27;;;8.40;99.90;;;;;;5056933;28;20036;-74
2023/04/23 03:56:53;;;;;;;36.03;21.70;;;8.10;99.90;;;;;;5073688;28;20365;-74
2023/04/23 03:59:19;;;;;;;41.80;23.52;;;8.00;99.90;;;;;;5074198;28;20056;-74
2023/04/23 04:01:47;;;;;;;39.60;23.20;;;8.10;99.90;;;;;;5075147;28;20098;-74
2023/04/23 04:04:13;;;;;;;45.53;24.42;;;8.30;99.90;;;;;;5075098;28;20048;-74
2023/04/23 04:06:40;;;;;;;43.08;23.92;;;8.10;99.90;;;;;;5074835;28;20036;-74
2023/04/23 04:09:08;;;;;;;44.60;25.13;;;8.40;99.90;;;;;;5075126;28;20072;-74
2023/04/23 04:11:34;;;;;;;47.72;25.23;;;8.10;99.90;;;;;;5073982;28;20056;-74
2023/04/23 04:14:01;;;;;;;49.20;25.90;;;8.30;99.90;;;;;;5074927;28;20442;-74
2023/04/23 04:16:26;;;;;;;55.08;26.58;;;8.10;99.90;;;;;;5074872;28;20098;-74
2023/04/23 04:18:52;;;;;;;49.38;26.42;;;8.00;99.90;;;;;;5073814;28;20044;-74
2023/04/23 04:21:18;;;;;;;51.22;26.58;;;8.10;99.90;;;;;;5074719;28;20132;-74
2023/04/23 04:23:44;;;;;;;54.63;27.33;;;8.30;99.90;;;;;;5073879;28;20044;-74
2023/04/23 04:26:10;;;;;;;52.53;26.45;;;8.10;99.90;;;;;;5074117;28;20044;-74
2023/04/23 04:28:36;;;;;;;56.03;28.58;;;8.30;99.90;;;;;;5074429;28;20526;-74
2023/04/23 04:31:05;;;;;;;49.78;27.00;;;8.30;99.90;;;;;;5074445;28;20059;-74
2023/04/23 04:33:32;;;;;;;55.88;29.13;;;8.30;99.90;;;;;;5073319;28;20115;-73
2023/04/23 04:35:59;;;;;;;53.17;27.98;;;8.20;99.90;;;;;;5074104;28;20123;-73
2023/04/23 04:38:25;;;;;;;49.83;26.45;;;8.20;99.90;;;;;;5074388;28;20369;-73
2023/04/23 04:40:54;;;;;;;50.25;27.05;;;8.20;99.90;;;;;;5074333;28;20044;-73
2023/04/23 04:43:20;;;;;;;52.22;28.05;;;8.10;99.90;;;;;;5074490;28;20087;-73
2023/04/23 04:45:45;;;;;;;50.70;27.20;;;8.30;99.90;;;;;;5072723;28;20136;-73
2023/04/23 04:48:11;;;;;;;53.47;27.83;;;8.10;99.90;;;;;;5073958;28;20049;-74
2023/04/23 04:50:37;;;;;;;48.92;27.48;;;8.00;99.90;;;;;;5073854;28;20397;-73
2023/04/23 04:53:02;;;;;;;56.50;29.45;;;8.60;99.90;;;;;;5074140;28;20127;-73
2023/04/23 04:55:28;;;;;;;58.55;28.55;;;8.10;99.90;;;;;;5073034;28;20131;-73
2023/04/23 04:57:54;;;;;;;51.38;28.80;;;8.50;99.90;;;;;;5073402;28;20044;-73
2023/04/23 05:00:21;;;;;;;59.83;32.53;;;8.50;99.90;;;;;;5073791;28;20407;-72
2023/04/23 05:02:48;;;;;;;61.15;29.85;;;8.50;99.90;;;;;;5073838;28;20048;-73
2023/04/23 05:05:14;;;;;;;57.03;29.45;;;8.40;99.90;;;;;;5073077;28;20102;-73
2023/04/23 05:07:40;;;;;;;60.63;30.25;;;8.40;99.90;;;;;;5072729;28;20048;-73
2023/04/23 05:10:06;;;;;;;56.83;29.92;;;8.50;99.90;;;;;;5073817;28;20048;-73
2023/04/23 05:12:32;;;;;;;82.28;34.10;;;8.50;99.90;;;;;;5072822;28;20055;-73
2023/04/23 05:14:57;;;;;;;66.10;29.90;;;8.60;99.90;;;;;;5073738;28;20045;-73
2023/04/23 05:17:23;;;;;;;86.47;34.00;;;8.50;99.90;;;;;;5073525;28;20098;-73
2023/04/23 05:19:49;;;;;;;63.95;30.60;;;8.60;99.90;;;;;;5073478;28;20048;-73
2023/04/23 05:22:17;;;;;;;87.72;34.85;;;8.40;99.90;;;;;;5072588;28;20048;-74
2023/04/23 05:24:44;;;;;;;65.50;31.48;;;8.60;99.90;;;;;;5073562;28;20048;-74
2023/04/23 05:27:10;;;;;;;55.88;31.08;;;8.70;99.90;;;;;;5072941;28;20604;-74
2023/04/23 05:29:35;;;;;;;59.67;32.58;;;8.80;99.90;;;;;;5072630;28;20145;-74
2023/04/23 05:32:01;;;;;;;58.45;31.20;;;8.70;99.90;;;;;;5072349;28;20170;-74
2023/04/23 05:34:27;;;;;;;84.20;36.20;;;8.80;99.90;;;;;;5073522;28;20044;-73
2023/04/23 05:36:52;;;;;;;74.40;36.08;;;8.80;99.90;;;;;;5072264;28;20102;-73
2023/04/23 05:39:18;;;;;;;69.60;35.13;;;9.00;99.90;;;;;;5072632;28;20040;-73
2023/04/23 05:41:43;;;;;;;76.18;36.00;;;8.80;99.90;;;;;;5072277;28;20047;-72
2023/04/23 05:44:09;;;;;;;73.90;36.13;;;8.90;99.90;;;;;;5072296;28;20048;-72
2023/04/23 05:46:35;;;;;;;68.20;35.50;;;8.90;99.90;;;;;;5071869;28;20510;-73
2023/04/23 05:49:01;;;;;;;67.45;34.15;;;8.60;99.90;;;;;;5073077;28;20127;-73
2023/04/23 05:51:26;;;;;;;65.38;34.72;;;9.20;99.90;;;;;;5073523;28;20369;-73
2023/04/23 05:53:52;;;;;;;69.85;36.13;;;9.20;99.90;;;;;;5073189;28;20044;-73
2023/04/23 05:56:17;;;;;;;63.70;34.55;;;9.00;99.90;;;;;;5072445;28;20040;-73
2023/04/23 05:58:43;;;;;;;70.75;35.30;;;9.20;99.90;;;;;;5073068;28;20044;-73
2023/04/23 06:01:09;;;;;;;68.10;33.15;;;9.20;99.90;;;;;;5072997;28;20040;-72
2023/04/23 06:03:36;;;;;;;65.82;35.47;;;9.20;99.90;;;;;;5072864;28;20051;-72
2023/04/23 06:06:02;;;;;;;59.60;33.05;;;9.50;99.90;;;;;;5073068;28;20070;-71
2023/04/23 06:08:28;;;;;;;65.90;33.83;;;9.30;99.90;;;;;;5055373;28;20144;-72
2023/04/23 06:10:55;;;;;;;71.25;36.30;;;9.50;99.90;;;;;;5071847;28;20051;-72
2023/04/23 06:13:20;;;;;;;65.25;35.03;;;9.20;99.90;;;;;;5071962;28;20063;-72
2023/04/23 06:15:46;;;;;;;68.10;34.97;;;9.40;99.90;;;;;;5055277;28;20044;-73
2023/04/23 06:18:12;;;;;;;64.03;32.28;;;9.40;99.90;;;;;;5075584;28;20044;-72
2023/04/23 06:20:37;;;;;;;59.80;33.13;;;9.30;99.90;;;;;;5077044;28;20467;-72
2023/04/23 06:23:03;;;;;;;64.78;33.30;;;9.30;99.90;;;;;;5077363;28;20040;-72
2023/04/23 06:25:29;;;;;;;61.33;32.88;;;9.40;99.90;;;;;;5075566;28;20055;-73
2023/04/23 06:27:56;;;;;;;66.68;35.13;;;9.70;99.90;;;;;;5075323;28;20053;-72
2023/04/23 06:30:22;;;;;;;63.92;33.60;;;9.80;99.90;;;;;;5076793;28;20048;-72
2023/04/23 06:32:49;;;;;;;60.42;32.30;;;9.60;99.90;;;;;;5075626;28;20071;-71
2023/04/23 06:35:15;;;;;;;66.13;34.67;;;9.80;99.90;;;;;;5076899;28;20044;-71
2023/04/23 06:37:40;;;;;;;66.50;33.65;;;9.60;99.90;;;;;;5075720;28;20094;-71
2023/04/23 06:40:06;;;;;;;67.15;35.08;;;9.70;99.90;;;;;;5076762;28;20136;-72
2023/04/23 06:42:32;;;;;;;64.72;34.58;;;9.60;99.90;;;;;;5076488;28;20048;-72
2023/04/23 06:45:02;;;;;;;73.03;35.00;;;9.80;99.90;;;;;;5076180;28;20040;-72
2023/04/23 06:47:28;;;;;;;63.30;33.20;;;9.90;99.90;;;;;;5075461;28;20543;-72
2023/04/23 06:49:54;;;;;;;65.22;34.10;;;10.10;99.90;;;;;;5075206;28;20136;-71
2023/04/23 06:52:20;;;;;;;58.85;32.25;;;10.00;99.90;;;;;;5076608;28;20427;-71
2023/04/23 06:54:45;;;;;;;61.83;33.03;;;10.10;99.90;;;;;;5076442;28;20142;-72
2023/04/23 06:57:11;;;;;;;57.83;33.05;;;10.10;99.90;;;;;;5075899;28;20048;-71
2023/04/23 06:59:37;;;;;;;63.17;34.72;;;10.20;99.90;;;;;;5076187;28;20113;-71
2023/04/23 07:02:03;;;;;;;65.10;33.47;;;10.10;99.90;;;;;;5076022;28;20048;-72
2023/04/23 07:04:28;;;;;;;60.03;33.35;;;10.30;99.90;;;;;;5076057;28;20450;-71
2023/04/23 07:06:54;;;;;;;58.13;31.88;;;10.20;99.90;;;;;;5076056;28;20044;-71
2023/04/23 07:09:20;;;;;;;56.92;31.45;;;10.30;99.90;;;;;;5076061;28;20048;-70
2023/04/23 07:11:46;;;;;;;60.83;31.92;;;10.10;99.90;;;;;;5076178;28;20131;-71
2023/04/23 07:14:11;;;;;;;55.78;31.92;;;10.30;99.90;;;;;;5074711;28;20065;-71
2023/04/23 07:16:37;;;;;;;57.60;31.60;;;10.30;99.90;;;;;;5075795;28;20507;-72
2023/04/23 07:19:03;;;;;;;59.58;33.10;;;10.40;99.90;;;;;;5058066;28;20054;-71
2023/04/23 07:21:28;;;;;;;56.30;31.58;;;10.40;99.90;;;;;;5076013;28;20052;-71
2023/04/23 07:24:06;;;;;;;53.78;30.55;;;10.30;99.90;;;;;;5074784;28;20074;-71
2023/04/23 07:26:33;;;;;;;58.47;30.67;;;10.40;99.90;;;;;;5073846;28;20041;-71
2023/04/23 07:29:00;;;;;;;51.95;29.27;;;10.50;99.90;;;;;;5074864;28;20040;-71
2023/04/23 07:31:27;;;;;;;54.72;29.98;;;10.60;99.90;;;;;;5075805;28;20044;-71
2023/04/23 07:33:54;;;;;;;48.97;28.45;;;10.60;99.90;;;;;;5075703;28;20052;-70
2023/04/23 07:36:19;;;;;;;50.10;28.40;;;10.60;99.90;;;;;;5074687;28;20045;-70
2023/04/23 07:38:45;;;;;;;51.97;28.95;;;10.80;99.90;;;;;;5074322;28;20060;-70
2023/04/23 07:41:11;;;;;;;51.85;28.88;;;10.80;99.90;;;;;;5057631;28;20041;-69
2023/04/23 07:43:39;;;;;;;48.88;28.38;;;10.90;99.90;;;;;;5074213;28;20052;-69
2023/04/23 07:46:06;;;;;;;49.50;27.90;;;10.90;99.90;;;;;;5074691;28;20064;-69
2023/04/23 07:48:33;;;;;;;44.92;26.23;;;11.00;99.90;;;;;;5075406;28;20049;-70
2023/04/23 07:50:59;;;;;;;43.03;24.30;;;11.10;99.90;;;;;;5074193;28;20053;-69
2023/04/23 07:53:27;;;;;;;43.92;26.23;;;11.10;99.90;;;;;;5075357;28;20045;-69
2023/04/23 07:55:55;;;;;;;44.15;26.10;;;11.20;99.90;;;;;;5075141;28;20048;-68
2023/04/23 07:58:21;;;;;;;42.17;25.67;;;11.20;99.90;;;;;;5074419;28;20128;-69
2023/04/23 08:00:47;;;;;;;41.28;25.02;;;11.30;99.90;;;;;;5075131;28;20098;-69
2023/04/23 08:03:13;;;;;;;40.65;25.48;;;11.40;99.90;;;;;;5075128;28;20049;-68
2023/04/23 08:05:40;;;;;;;46.92;26.45;;;11.50;99.90;;;;;;5075155;28;20052;-68
2023/04/23 08:08:07;;;;;;;41.13;25.55;;;11.60;99.90;;;;;;5074988;28;20049;-69
2023/04/23 08:10:36;;;;;;;40.78;24.70;;;11.60;99.90;;;;;;5073720;28;20048;-69
2023/04/23 08:13:02;;;;;;;40.67;24.20;;;11.70;99.90;;;;;;5074462;28;20174;-70
2023/04/23 08:15:27;;;;;;;37.95;23.02;;;11.80;99.90;;;;;;5074302;28;20504;-68
2023/04/23 08:17:53;;;;;;;38.83;24.55;;;11.90;99.90;;;;;;5074139;28;20044;-68
2023/04/23 08:20:19;;;;;;;40.60;24.52;;;12.90;99.90;;;;;;5074787;28;20514;-69
2023/04/23 08:22:44;;;;;;;38.75;23.88;;;12.00;99.90;;;;;;5074406;28;20045;-68
2023/04/23 08:25:11;;;;;;;38.85;23.67;;;12.10;99.90;;;;;;5073948;28;20123;-69
2023/04/23 08:27:37;;;;;;;39.55;25.38;;;12.10;99.90;;;;;;5074095;28;20048;-68
2023/04/23 08:30:05;;;;;;;38.72;23.52;;;12.10;99.90;;;;;;5074208;28;20098;-68
2023/04/23 08:32:31;;;;;;;37.75;23.73;;;12.20;99.90;;;;;;5073413;28;20040;-69
2023/04/23 08:34:57;;;;;;;37.88;23.80;;;12.20;99.90;;;;;;5074566;28;20044;-70
2023/04/23 08:37:23;;;;;;;39.40;24.05;;;12.20;99.90;;;;;;5074346;28;20127;-69
2023/04/23 08:39:49;;;;;;;39.42;25.20;;;12.20;99.90;;;;;;5073316;28;20102;-69
2023/04/23 08:42:23;;;;;;;38.08;24.38;;;12.30;99.90;;;;;;5074379;28;20444;-69
2023/04/23 08:44:52;;;;;;;35.47;22.27;;;12.40;99.90;;;;;;5074780;28;20098;-69
2023/04/23 08:47:21;;;;;;;37.60;24.00;;;12.50;99.90;;;;;;5072735;28;20056;-69
2023/04/23 08:49:49;;;;;;;34.55;23.55;;;12.60;99.90;;;;;;5073595;28;20446;-70
2023/04/23 08:52:17;;;;;;;34.88;22.70;;;12.60;99.90;;;;;;5074010;28;20041;-69
2023/04/23 08:54:49;;;;;;;36.95;23.90;;;12.70;99.90;;;;;;5074224;28;20407;-69
2023/04/23 08:57:16;;;;;;;32.22;21.83;;;12.60;99.90;;;;;;5074233;28;20507;-68
2023/04/23 08:59:43;;;;;;;32.53;21.58;;;12.70;99.90;;;;;;5073759;28;20492;-68
2023/04/23 09:02:09;;;;;;;28.98;19.77;;;12.70;99.90;;;;;;5074006;28;20561;-68
2023/04/23 09:04:35;;;;;;;32.15;21.17;;;12.90;99.90;;;;;;5073926;28;20048;-68
2023/04/23 09:07:02;;;;;;;31.65;21.60;;;13.20;99.90;;;;;;5073086;28;20033;-69
2023/04/23 09:09:28;;;;;;;28.92;20.45;;;13.10;99.90;;;;;;5073372;28;20494;-69
2023/04/23 09:11:57;;;;;;;32.33;21.65;;;13.10;99.90;;;;;;5073323;28;20070;-70
2023/04/23 09:14:24;;;;;;;31.48;21.48;;;13.20;99.90;;;;;;5069796;28;20044;-70
2023/04/23 09:16:50;;;;;;;28.25;18.90;;;13.30;99.90;;;;;;5073201;28;20523;-68
2023/04/23 09:19:17;;;;;;;30.63;20.35;;;13.30;99.90;;;;;;5072073;28;20119;-70
2023/04/23 09:21:44;;;;;;;29.55;18.85;;;13.30;99.90;;;;;;5070352;28;20048;-71
2023/04/23 09:24:11;;;;;;;27.33;19.15;;;13.50;99.90;;;;;;5073306;28;20055;-70
2023/04/23 09:26:46;;;;;;;24.83;18.13;;;13.50;99.90;;;;;;5072798;28;20099;-70
2023/04/23 09:29:22;;;;;;;27.55;19.10;;;13.70;99.90;;;;;;5071887;28;20480;-71
2023/04/23 09:31:50;;;;;;;29.60;19.38;;;13.70;99.90;;;;;;5071135;28;20053;-71
2023/04/23 09:34:19;;;;;;;26.00;18.73;;;14.00;99.90;;;;;;5073223;28;20040;-71
2023/04/23 09:36:49;;;;;;;22.65;16.42;;;14.00;99.90;;;;;;5069879;28;20115;-70
2023/04/23 09:39:20;;;;;;;23.05;16.85;;;14.00;99.90;;;;;;5073069;28;20087;-71
2023/04/23 09:41:46;;;;;;;23.30;17.13;;;14.10;99.90;;;;;;5068784;28;20036;-71
2023/04/23 09:44:22;;;;;;;20.02;13.90;;;14.10;99.90;;;;;;5071099;28;20120;-71
2023/04/23 09:46:48;;;;;;;20.48;15.23;;;14.20;99.90;;;;;;5075728;28;20059;-70
2023/04/23 09:49:14;;;;;;;20.02;13.35;;;14.20;99.90;;;;;;5072831;28;20052;-70
2023/04/23 09:51:42;;;;;;;21.00;12.68;;;14.30;99.90;;;;;;5071794;28;20442;-67
2023/04/23 09:54:21;;;;;;;18.20;12.05;;;14.30;99.90;;;;;;5069346;28;20117;-69
2023/04/23 09:56:52;;;;;;;16.38;11.30;;;14.20;99.90;;;;;;5069749;28;20051;-70
2023/04/23 09:59:20;;;;;;;15.73;11.25;;;14.40;99.90;;;;;;5072213;28;20507;-70
2023/04/23 10:01:45;;;;;;;15.90;11.13;;;14.40;99.90;;;;;;5070009;28;20044;-70
2023/04/23 10:04:16;;;;;;;17.35;11.63;;;14.50;99.90;;;;;;5072664;28;20527;-70
2023/04/23 10:06:42;;;;;;;16.67;10.98;;;14.50;99.90;;;;;;5072687;28;20040;-70
2023/04/23 10:09:08;;;;;;;18.17;12.23;;;14.60;99.90;;;;;;5072402;28;20450;-70
2023/04/23 10:11:35;;;;;;;15.18;10.18;;;14.80;99.90;;;;;;5072759;28;20044;-69
2023/04/23 10:14:02;;;;;;;16.02;10.40;;;14.90;99.90;;;;;;5072274;28;20101;-70
2023/04/23 10:16:28;;;;;;;15.65;9.73;;;15.00;99.90;;;;;;5072660;28;20056;-75
2023/04/23 10:18:55;;;;;;;12.60;9.10;;;15.10;99.90;;;;;;5072547;28;20396;-73
2023/04/23 10:21:27;;;;;;;14.48;8.77;;;15.30;99.90;;;;;;5072223;28;20572;-72
2023/04/23 10:23:55;;;;;;;15.55;9.65;;;15.30;99.90;;;;;;5072417;28;20086;-72
2023/04/23 10:26:23;;;;;;;14.45;10.52;;;15.40;99.90;;;;;;5072043;28;20052;-71
2023/04/23 10:28:52;;;;;;;15.70;9.02;;;15.40;99.90;;;;;;5071723;28;20119;-71
2023/04/23 10:31:19;;;;;;;13.48;9.25;;;15.40;99.90;;;;;;5072559;28;20109;-69
2023/04/23 10:33:49;;;;;;;14.82;8.30;;;15.40;99.90;;;;;;5072396;28;20412;-70
2023/04/23 10:36:16;;;;;;;14.13;9.05;;;15.40;99.90;;;;;;5072419;28;20029;-73
2023/04/23 10:38:42;;;;;;;13.48;8.07;;;15.30;99.90;;;;;;5072472;28;20043;-71
2023/04/23 10:41:09;;;;;;;13.50;8.40;;;15.40;99.90;;;;;;5072108;28;20040;-72
2023/04/23 10:43:35;;;;;;;11.02;8.25;;;15.40;99.90;;;;;;5071347;28;20472;-72
2023/04/23 10:46:01;;;;;;;12.45;8.48;;;15.50;99.90;;;;;;5072109;28;20067;-72
2023/04/23 10:48:27;;;;;;;14.32;8.68;;;15.50;99.90;;;;;;5070287;28;20080;-71
2023/04/23 10:50:58;;;;;;;9.98;6.47;;;15.70;99.90;;;;;;5072156;28;20041;-70
2023/04/23 10:53:25;;;;;;;9.30;6.47;;;15.90;99.90;;;;;;5071574;28;20055;-72
2023/04/23 10:56:08;;;;;;;8.93;5.68;;;16.00;99.90;;;;;;5072120;28;20047;-72
2023/04/23 10:58:50;;;;;;;9.45;6.32;;;16.10;99.90;;;;;;5070251;28;20083;-71
2023/04/23 11:01:17;;;;;;;8.07;5.40;;;16.10;99.90;;;;;;5070722;28;20040;-72
2023/04/23 11:03:43;;;;;;;11.48;6.35;;;16.30;99.90;;;;;;5072129;28;20044;-72
2023/04/23 11:06:14;;;;;;;7.25;4.88;;;16.30;99.90;;;;;;5074411;28;20098;-73
2023/04/23 11:08:55;;;;;;;9.50;5.88;;;16.20;99.90;;;;;;5075737;28;20055;-73
2023/04/23 11:11:39;;;;;;;8.35;5.22;;;16.40;99.90;;;;;;5074920;28;20040;-72
2023/04/23 11:14:13;;;;;;;7.00;4.20;;;16.20;99.90;;;;;;5075653;28;20041;-73
2023/04/23 11:16:38;;;;;;;6.03;3.35;;;16.30;99.90;;;;;;5075557;28;20044;-72
2023/04/23 11:19:11;;;;;;;6.65;2.90;;;16.30;99.90;;;;;;5075550;28;20075;-72
2023/04/23 11:22:03;;;;;;;7.03;2.90;;;16.40;99.90;;;;;;5075220;28;20052;-72
2023/04/23 11:24:44;;;;;;;8.57;3.30;;;16.40;99.90;;;;;;5073328;28;20048;-72
2023/04/23 11:27:11;;;;;;;5.25;2.70;;;16.40;99.90;;;;;;5072719;28;20059;-71
2023/04/23 11:29:41;;;;;;;5.90;2.00;;;16.50;99.90;;;;;;5075337;28;20365;-72
2023/04/23 11:32:12;;;;;;;4.75;2.58;;;16.60;99.90;;;;;;5072158;28;20523;-71
2023/04/23 11:34:43;;;;;;;6.97;3.25;;;16.70;99.90;;;;;;5074270;28;20492;-71
2023/04/23 11:37:16;;;;;;;4.15;2.28;;;16.70;99.90;;;;;;5072882;28;20044;-71
2023/04/23 11:39:44;;;;;;;6.00;2.50;;;16.80;99.90;;;;;;5075526;28;20500;-71
2023/04/23 11:42:14;;;;;;;3.83;2.35;;;16.80;99.90;;;;;;5074925;28;20045;-69
2023/04/23 11:44:41;;;;;;;4.38;2.47;;;17.00;99.90;;;;;;5075151;28;20044;-69
2023/04/23 11:47:09;;;;;;;5.95;2.45;;;17.10;99.90;;;;;;5071834;28;20051;-70
2023/04/23 11:49:41;;;;;;;3.35;1.80;;;17.20;99.90;;;;;;5073964;28;20396;-71
2023/04/23 11:52:08;;;;;;;5.85;2.28;;;17.30;99.90;;;;;;5072040;28;20052;-71
2023/04/23 11:54:34;;;;;;;3.22;1.63;;;17.40;99.90;;;;;;5074890;28;20098;-72
2023/04/23 11:57:01;;;;;;;5.13;1.85;;;17.40;99.90;;;;;;5074610;28;20048;-71
2023/04/23 11:59:28;;;;;;;6.35;1.73;;;17.40;99.90;;;;;;5074613;28;20484;-71
2023/04/23 12:01:56;;;;;;;3.80;1.25;;;17.30;99.90;;;;;;5074700;28;20044;-72
2023/04/23 12:04:27;;;;;;;3.97;1.65;;;17.40;99.90;;;;;;5075239;28;20090;-72
2023/04/23 12:06:54;;;;;;;4.47;1.30;;;17.40;99.90;;;;;;5074897;28;20053;-71
2023/04/23 12:09:24;;;;;;;3.78;1.40;;;17.50;99.90;;;;;;5075261;28;20048;-72
2023/04/23 12:11:50;;;;;;;4.38;1.48;;;17.60;99.90;;;;;;5094142;28;20048;-71
2023/04/23 12:14:19;;;;;;;2.90;0.98;;;17.80;99.90;;;;;;5074410;28;20048;-71
2023/04/23 12:16:50;;;;;;;2.70;1.13;;;17.90;99.90;;;;;;5074033;28;20048;-71
2023/04/23 12:19:19;;;;;;;4.47;0.95;;;17.90;99.90;;;;;;5074593;28;20045;-72
2023/04/23 12:21:59;;;;;;;4.38;1.17;;;18.00;99.90;;;;;;5074043;28;20052;-73
2023/04/23 12:24:28;;;;;;;3.13;0.95;;;18.10;99.90;;;;;;5063631;28;20048;-71
2023/04/23 12:26:59;;;;;;;2.50;0.75;;;18.20;99.90;;;;;;5073311;28;20048;-72
2023/04/23 12:29:25;;;;;;;4.32;0.75;;;18.20;99.90;;;;;;5073150;28;20052;-73
2023/04/23 12:31:52;;;;;;;2.00;0.80;;;18.30;99.90;;;;;;5073190;28;20052;-73
2023/04/23 12:34:20;;;;;;;2.63;0.70;;;18.30;99.90;;;;;;5073744;28;20044;-73